sensor_id;sensor_type;location;lat;lon;timestamp;P1;durP1;ratioP1;P2;durP2;ratioP2
12703;SDS011;6416;52.182;7.650;2022-08-19T00:01:41;2.58;;;2.38;;
12703;SDS011;6416;52.182;7.650;2022-08-19T00:04:08;2.90;;;2.60;;
12703;SDS011;6416;52.182;7.650;2022-08-19T00:06:36;2.83;;;2.40;;
12703;SDS011;6416;52.182;7.650;2022-08-19T00:09:03;2.75;;;2.55;;
12703;SDS011;6416;52.182;7.650;2022-08-19T00:11:30;2.72;;;2.53;;
12703;SDS011;6416;52.182;7.650;2022-08-19T00:13:56;4.57;;;2.78;;
12703;SDS011;6416;52.182;7.650;2022-08-19T00:16:23;3.10;;;2.80;;
12703;SDS011;6416;52.182;7.650;2022-08-19T00:18:49;2.60;;;2.40;;
12703;SDS011;6416;52.182;7.650;2022-08-19T00:21:15;3.53;;;2.85;;
12703;SDS011;6416;52.182;7.650;2022-08-19T00:23:41;2.40;;;2.30;;
12703;SDS011;6416;52.182;7.650;2022-08-19T00:26:07;2.80;;;2.60;;
12703;SDS011;6416;52.182;7.650;2022-08-19T00:28:33;2.85;;;2.65;;
12703;SDS011;6416;52.182;7.650;2022-08-19T00:30:59;2.65;;;2.35;;
12703;SDS011;6416;52.182;7.650;2022-08-19T00:33:25;2.75;;;2.40;;
12703;SDS011;6416;52.182;7.650;2022-08-19T00:35:50;2.75;;;2.55;;
12703;SDS011;6416;52.182;7.650;2022-08-19T00:38:16;3.03;;;2.80;;
12703;SDS011;6416;52.182;7.650;2022-08-19T00:40:43;2.85;;;2.65;;
12703;SDS011;6416;52.182;7.650;2022-08-19T00:43:10;3.03;;;2.72;;
12703;SDS011;6416;52.182;7.650;2022-08-19T00:45:36;3.10;;;2.80;;
12703;SDS011;6416;52.182;7.650;2022-08-19T00:48:02;2.88;;;2.67;;
12703;SDS011;6416;52.182;7.650;2022-08-19T00:50:28;3.03;;;2.72;;
12703;SDS011;6416;52.182;7.650;2022-08-19T00:52:53;3.17;;;2.88;;
12703;SDS011;6416;52.182;7.650;2022-08-19T00:55:20;3.28;;;2.97;;
12703;SDS011;6416;52.182;7.650;2022-08-19T00:57:58;3.80;;;2.85;;
12703;SDS011;6416;52.182;7.650;2022-08-19T01:00:31;3.17;;;2.97;;
12703;SDS011;6416;52.182;7.650;2022-08-19T01:02:56;3.30;;;3.00;;
12703;SDS011;6416;52.182;7.650;2022-08-19T01:05:23;3.08;;;2.83;;
12703;SDS011;6416;52.182;7.650;2022-08-19T01:07:51;3.40;;;3.10;;
12703;SDS011;6416;52.182;7.650;2022-08-19T01:10:19;3.33;;;3.08;;
12703;SDS011;6416;52.182;7.650;2022-08-19T01:12:48;3.00;;;2.78;;
12703;SDS011;6416;52.182;7.650;2022-08-19T01:15:16;2.80;;;2.60;;
12703;SDS011;6416;52.182;7.650;2022-08-19T01:17:45;3.20;;;3.00;;
12703;SDS011;6416;52.182;7.650;2022-08-19T01:20:15;4.30;;;3.00;;
12703;SDS011;6416;52.182;7.650;2022-08-19T01:22:47;3.30;;;3.00;;
12703;SDS011;6416;52.182;7.650;2022-08-19T01:25:14;5.00;;;2.95;;
12703;SDS011;6416;52.182;7.650;2022-08-19T01:27:42;2.83;;;2.63;;
12703;SDS011;6416;52.182;7.650;2022-08-19T01:30:10;3.03;;;2.80;;
12703;SDS011;6416;52.182;7.650;2022-08-19T01:32:38;3.75;;;2.97;;
12703;SDS011;6416;52.182;7.650;2022-08-19T01:35:04;3.15;;;2.85;;
12703;SDS011;6416;52.182;7.650;2022-08-19T01:37:30;3.88;;;3.47;;
12703;SDS011;6416;52.182;7.650;2022-08-19T01:40:06;3.60;;;3.30;;
12703;SDS011;6416;52.182;7.650;2022-08-19T01:42:32;3.63;;;3.33;;
12703;SDS011;6416;52.182;7.650;2022-08-19T01:44:57;3.72;;;3.42;;
12703;SDS011;6416;52.182;7.650;2022-08-19T01:47:23;3.65;;;3.33;;
12703;SDS011;6416;52.182;7.650;2022-08-19T01:49:48;3.80;;;3.50;;
12703;SDS011;6416;52.182;7.650;2022-08-19T01:52:14;3.35;;;3.05;;
12703;SDS011;6416;52.182;7.650;2022-08-19T01:54:39;3.50;;;3.20;;
12703;SDS011;6416;52.182;7.650;2022-08-19T01:57:07;4.05;;;3.40;;
12703;SDS011;6416;52.182;7.650;2022-08-19T01:59:35;4.57;;;3.40;;
12703;SDS011;6416;52.182;7.650;2022-08-19T02:02:01;3.67;;;3.38;;
12703;SDS011;6416;52.182;7.650;2022-08-19T02:04:27;3.40;;;3.10;;
12703;SDS011;6416;52.182;7.650;2022-08-19T02:06:53;5.07;;;3.92;;
12703;SDS011;6416;52.182;7.650;2022-08-19T02:09:18;3.70;;;3.40;;
12703;SDS011;6416;52.182;7.650;2022-08-19T02:11:44;4.00;;;3.70;;
12703;SDS011;6416;52.182;7.650;2022-08-19T02:14:10;4.82;;;3.25;;
12703;SDS011;6416;52.182;7.650;2022-08-19T02:16:35;3.33;;;3.13;;
12703;SDS011;6416;52.182;7.650;2022-08-19T02:19:02;3.72;;;3.42;;
12703;SDS011;6416;52.182;7.650;2022-08-19T02:21:28;4.38;;;3.70;;
12703;SDS011;6416;52.182;7.650;2022-08-19T02:23:55;3.65;;;3.35;;
12703;SDS011;6416;52.182;7.650;2022-08-19T02:26:20;3.90;;;3.60;;
12703;SDS011;6416;52.182;7.650;2022-08-19T02:28:46;4.18;;;3.88;;
12703;SDS011;6416;52.182;7.650;2022-08-19T02:31:15;3.95;;;3.65;;
12703;SDS011;6416;52.182;7.650;2022-08-19T02:33:46;3.92;;;3.63;;
12703;SDS011;6416;52.182;7.650;2022-08-19T02:36:13;4.55;;;3.60;;
12703;SDS011;6416;52.182;7.650;2022-08-19T02:38:39;3.85;;;3.55;;
12703;SDS011;6416;52.182;7.650;2022-08-19T02:41:18;4.45;;;4.03;;
12703;SDS011;6416;52.182;7.650;2022-08-19T02:43:49;3.90;;;3.60;;
12703;SDS011;6416;52.182;7.650;2022-08-19T02:46:26;4.40;;;4.00;;
12703;SDS011;6416;52.182;7.650;2022-08-19T02:48:55;4.13;;;3.83;;
12703;SDS011;6416;52.182;7.650;2022-08-19T02:51:26;3.97;;;3.58;;
12703;SDS011;6416;52.182;7.650;2022-08-19T02:53:57;3.80;;;3.50;;
12703;SDS011;6416;52.182;7.650;2022-08-19T02:56:23;4.22;;;3.72;;
12703;SDS011;6416;52.182;7.650;2022-08-19T02:58:49;4.97;;;4.00;;
12703;SDS011;6416;52.182;7.650;2022-08-19T03:01:25;3.70;;;3.40;;
12703;SDS011;6416;52.182;7.650;2022-08-19T03:03:53;4.07;;;3.70;;
12703;SDS011;6416;52.182;7.650;2022-08-19T03:06:19;4.93;;;4.13;;
12703;SDS011;6416;52.182;7.650;2022-08-19T03:08:46;4.22;;;3.92;;
12703;SDS011;6416;52.182;7.650;2022-08-19T03:11:20;4.47;;;4.03;;
12703;SDS011;6416;52.182;7.650;2022-08-19T03:13:47;4.13;;;3.83;;
12703;SDS011;6416;52.182;7.650;2022-08-19T03:16:13;4.30;;;3.90;;
12703;SDS011;6416;52.182;7.650;2022-08-19T03:18:38;4.80;;;3.90;;
12703;SDS011;6416;52.182;7.650;2022-08-19T03:21:04;4.45;;;4.05;;
12703;SDS011;6416;52.182;7.650;2022-08-19T03:23:30;4.38;;;4.07;;
12703;SDS011;6416;52.182;7.650;2022-08-19T03:25:56;3.80;;;3.50;;
12703;SDS011;6416;52.182;7.650;2022-08-19T03:28:21;4.20;;;3.90;;
12703;SDS011;6416;52.182;7.650;2022-08-19T03:30:57;3.97;;;3.67;;
12703;SDS011;6416;52.182;7.650;2022-08-19T03:33:25;4.13;;;3.83;;
12703;SDS011;6416;52.182;7.650;2022-08-19T03:36:01;4.07;;;3.78;;
12703;SDS011;6416;52.182;7.650;2022-08-19T03:38:31;4.35;;;4.03;;
12703;SDS011;6416;52.182;7.650;2022-08-19T03:40:57;5.10;;;4.70;;
12703;SDS011;6416;52.182;7.650;2022-08-19T03:43:26;5.15;;;4.60;;
12703;SDS011;6416;52.182;7.650;2022-08-19T03:46:05;4.80;;;4.40;;
12703;SDS011;6416;52.182;7.650;2022-08-19T03:48:33;4.55;;;4.25;;
12703;SDS011;6416;52.182;7.650;2022-08-19T03:51:00;5.03;;;4.55;;
12703;SDS011;6416;52.182;7.650;2022-08-19T03:53:26;5.28;;;4.78;;
12703;SDS011;6416;52.182;7.650;2022-08-19T03:55:52;5.82;;;5.32;;
12703;SDS011;6416;52.182;7.650;2022-08-19T03:58:19;4.97;;;4.57;;
12703;SDS011;6416;52.182;7.650;2022-08-19T04:00:45;4.90;;;4.50;;
12703;SDS011;6416;52.182;7.650;2022-08-19T04:03:11;5.45;;;4.97;;
12703;SDS011;6416;52.182;7.650;2022-08-19T04:05:36;5.63;;;5.13;;
12703;SDS011;6416;52.182;7.650;2022-08-19T04:08:02;5.75;;;5.10;;
12703;SDS011;6416;52.182;7.650;2022-08-19T04:10:28;5.60;;;5.10;;
12703;SDS011;6416;52.182;7.650;2022-08-19T04:12:53;5.80;;;5.30;;
12703;SDS011;6416;52.182;7.650;2022-08-19T04:15:19;6.03;;;5.53;;
12703;SDS011;6416;52.182;7.650;2022-08-19T04:17:44;5.78;;;5.25;;
12703;SDS011;6416;52.182;7.650;2022-08-19T04:20:10;6.00;;;5.32;;
12703;SDS011;6416;52.182;7.650;2022-08-19T04:22:35;5.38;;;4.88;;
12703;SDS011;6416;52.182;7.650;2022-08-19T04:25:01;6.05;;;5.28;;
12703;SDS011;6416;52.182;7.650;2022-08-19T04:27:27;6.38;;;5.28;;
12703;SDS011;6416;52.182;7.650;2022-08-19T04:29:52;14.90;;;5.60;;
12703;SDS011;6416;52.182;7.650;2022-08-19T04:32:18;6.70;;;5.43;;
12703;SDS011;6416;52.182;7.650;2022-08-19T04:34:43;5.32;;;4.88;;
12703;SDS011;6416;52.182;7.650;2022-08-19T04:37:09;4.85;;;4.35;;
12703;SDS011;6416;52.182;7.650;2022-08-19T04:39:34;7.72;;;5.10;;
12703;SDS011;6416;52.182;7.650;2022-08-19T04:42:00;5.90;;;5.30;;
12703;SDS011;6416;52.182;7.650;2022-08-19T04:44:25;6.95;;;4.75;;
12703;SDS011;6416;52.182;7.650;2022-08-19T04:46:51;5.35;;;4.82;;
12703;SDS011;6416;52.182;7.650;2022-08-19T04:49:18;5.60;;;4.95;;
12703;SDS011;6416;52.182;7.650;2022-08-19T04:51:46;9.00;;;5.10;;
12703;SDS011;6416;52.182;7.650;2022-08-19T04:54:12;6.22;;;5.63;;
12703;SDS011;6416;52.182;7.650;2022-08-19T04:56:38;5.45;;;4.97;;
12703;SDS011;6416;52.182;7.650;2022-08-19T04:59:05;6.30;;;5.70;;
12703;SDS011;6416;52.182;7.650;2022-08-19T05:01:31;6.25;;;5.65;;
12703;SDS011;6416;52.182;7.650;2022-08-19T05:03:59;6.95;;;5.57;;
12703;SDS011;6416;52.182;7.650;2022-08-19T05:06:25;5.55;;;5.05;;
12703;SDS011;6416;52.182;7.650;2022-08-19T05:08:51;5.97;;;5.15;;
12703;SDS011;6416;52.182;7.650;2022-08-19T05:11:18;6.40;;;5.07;;
12703;SDS011;6416;52.182;7.650;2022-08-19T05:13:47;5.25;;;4.78;;
12703;SDS011;6416;52.182;7.650;2022-08-19T05:16:13;5.47;;;4.97;;
12703;SDS011;6416;52.182;7.650;2022-08-19T05:18:40;5.93;;;5.40;;
12703;SDS011;6416;52.182;7.650;2022-08-19T05:21:07;7.05;;;5.07;;
12703;SDS011;6416;52.182;7.650;2022-08-19T05:23:42;6.90;;;5.85;;
12703;SDS011;6416;52.182;7.650;2022-08-19T05:26:07;6.88;;;5.63;;
12703;SDS011;6416;52.182;7.650;2022-08-19T05:28:33;6.68;;;5.50;;
12703;SDS011;6416;52.182;7.650;2022-08-19T05:30:58;6.95;;;5.30;;
12703;SDS011;6416;52.182;7.650;2022-08-19T05:33:24;7.20;;;5.70;;
12703;SDS011;6416;52.182;7.650;2022-08-19T05:35:49;5.70;;;5.15;;
12703;SDS011;6416;52.182;7.650;2022-08-19T05:38:18;6.93;;;4.97;;
12703;SDS011;6416;52.182;7.650;2022-08-19T05:40:44;5.32;;;4.82;;
12703;SDS011;6416;52.182;7.650;2022-08-19T05:43:09;5.50;;;4.65;;
12703;SDS011;6416;52.182;7.650;2022-08-19T05:45:38;5.30;;;4.80;;
12703;SDS011;6416;52.182;7.650;2022-08-19T05:48:04;5.25;;;4.75;;
12703;SDS011;6416;52.182;7.650;2022-08-19T05:50:30;8.35;;;5.00;;
12703;SDS011;6416;52.182;7.650;2022-08-19T05:52:55;15.10;;;5.63;;
12703;SDS011;6416;52.182;7.650;2022-08-19T05:55:21;5.82;;;5.22;;
12703;SDS011;6416;52.182;7.650;2022-08-19T05:57:46;6.22;;;4.43;;
12703;SDS011;6416;52.182;7.650;2022-08-19T06:00:12;4.82;;;4.40;;
12703;SDS011;6416;52.182;7.650;2022-08-19T06:02:38;5.07;;;4.68;;
12703;SDS011;6416;52.182;7.650;2022-08-19T06:05:04;7.20;;;5.13;;
12703;SDS011;6416;52.182;7.650;2022-08-19T06:07:31;7.05;;;4.80;;
12703;SDS011;6416;52.182;7.650;2022-08-19T06:09:57;5.00;;;4.55;;
12703;SDS011;6416;52.182;7.650;2022-08-19T06:12:23;6.03;;;4.95;;
12703;SDS011;6416;52.182;7.650;2022-08-19T06:14:49;5.32;;;4.82;;
12703;SDS011;6416;52.182;7.650;2022-08-19T06:17:14;7.85;;;4.85;;
12703;SDS011;6416;52.182;7.650;2022-08-19T06:19:40;4.43;;;4.13;;
12703;SDS011;6416;52.182;7.650;2022-08-19T06:22:05;4.57;;;4.15;;
12703;SDS011;6416;52.182;7.650;2022-08-19T06:24:31;4.22;;;3.83;;
12703;SDS011;6416;52.182;7.650;2022-08-19T06:26:57;4.82;;;4.45;;
12703;SDS011;6416;52.182;7.650;2022-08-19T06:29:24;4.85;;;4.35;;
12703;SDS011;6416;52.182;7.650;2022-08-19T06:31:53;5.15;;;4.53;;
12703;SDS011;6416;52.182;7.650;2022-08-19T06:34:20;5.57;;;4.70;;
12703;SDS011;6416;52.182;7.650;2022-08-19T06:36:48;5.28;;;4.82;;
12703;SDS011;6416;52.182;7.650;2022-08-19T06:39:15;5.03;;;4.53;;
12703;SDS011;6416;52.182;7.650;2022-08-19T06:41:44;5.60;;;4.88;;
12703;SDS011;6416;52.182;7.650;2022-08-19T06:44:12;5.00;;;4.40;;
12703;SDS011;6416;52.182;7.650;2022-08-19T06:46:39;6.13;;;4.80;;
12703;SDS011;6416;52.182;7.650;2022-08-19T06:49:05;5.20;;;3.90;;
12703;SDS011;6416;52.182;7.650;2022-08-19T06:51:31;5.00;;;4.47;;
12703;SDS011;6416;52.182;7.650;2022-08-19T06:53:57;4.10;;;3.70;;
12703;SDS011;6416;52.182;7.650;2022-08-19T06:56:24;5.18;;;3.45;;
12703;SDS011;6416;52.182;7.650;2022-08-19T06:58:51;2.92;;;2.72;;
12703;SDS011;6416;52.182;7.650;2022-08-19T07:01:17;3.38;;;3.08;;
12703;SDS011;6416;52.182;7.650;2022-08-19T07:03:42;3.83;;;3.45;;
12703;SDS011;6416;52.182;7.650;2022-08-19T07:06:10;4.13;;;3.83;;
12703;SDS011;6416;52.182;7.650;2022-08-19T07:08:37;4.45;;;4.05;;
12703;SDS011;6416;52.182;7.650;2022-08-19T07:11:07;2.72;;;2.50;;
12703;SDS011;6416;52.182;7.650;2022-08-19T07:13:34;4.00;;;3.40;;
12703;SDS011;6416;52.182;7.650;2022-08-19T07:16:02;4.97;;;3.50;;
12703;SDS011;6416;52.182;7.650;2022-08-19T07:18:29;7.40;;;3.25;;
12703;SDS011;6416;52.182;7.650;2022-08-19T07:23:29;5.10;;;2.78;;
12703;SDS011;6416;52.182;7.650;2022-08-19T07:25:55;4.32;;;3.38;;
12703;SDS011;6416;52.182;7.650;2022-08-19T07:28:20;4.40;;;4.00;;
12703;SDS011;6416;52.182;7.650;2022-08-19T07:30:46;5.35;;;3.47;;
12703;SDS011;6416;52.182;7.650;2022-08-19T07:33:11;4.70;;;2.35;;
12703;SDS011;6416;52.182;7.650;2022-08-19T07:35:37;3.55;;;2.88;;
12703;SDS011;6416;52.182;7.650;2022-08-19T07:38:02;10.90;;;2.78;;
12703;SDS011;6416;52.182;7.650;2022-08-19T07:40:28;3.10;;;2.78;;
12703;SDS011;6416;52.182;7.650;2022-08-19T07:42:53;2.45;;;2.00;;
12703;SDS011;6416;52.182;7.650;2022-08-19T07:45:19;2.60;;;2.40;;
12703;SDS011;6416;52.182;7.650;2022-08-19T07:47:44;3.17;;;1.60;;
12703;SDS011;6416;52.182;7.650;2022-08-19T07:50:10;2.45;;;1.85;;
12703;SDS011;6416;52.182;7.650;2022-08-19T07:52:36;4.72;;;2.80;;
12703;SDS011;6416;52.182;7.650;2022-08-19T07:55:03;2.55;;;1.80;;
12703;SDS011;6416;52.182;7.650;2022-08-19T07:57:35;2.20;;;1.55;;
12703;SDS011;6416;52.182;7.650;2022-08-19T08:00:00;1.88;;;1.50;;
12703;SDS011;6416;52.182;7.650;2022-08-19T08:02:27;2.03;;;1.45;;
12703;SDS011;6416;52.182;7.650;2022-08-19T08:04:53;2.25;;;2.05;;
12703;SDS011;6416;52.182;7.650;2022-08-19T08:07:19;2.85;;;1.70;;
12703;SDS011;6416;52.182;7.650;2022-08-19T08:09:44;2.20;;;2.00;;
12703;SDS011;6416;52.182;7.650;2022-08-19T08:12:13;4.13;;;1.90;;
12703;SDS011;6416;52.182;7.650;2022-08-19T08:14:45;2.90;;;1.50;;
12703;SDS011;6416;52.182;7.650;2022-08-19T08:17:15;3.47;;;2.05;;
12703;SDS011;6416;52.182;7.650;2022-08-19T08:19:42;1.50;;;1.30;;
12703;SDS011;6416;52.182;7.650;2022-08-19T08:22:09;2.80;;;1.80;;
12703;SDS011;6416;52.182;7.650;2022-08-19T08:24:36;1.73;;;1.63;;
12703;SDS011;6416;52.182;7.650;2022-08-19T08:27:02;2.42;;;1.80;;
12703;SDS011;6416;52.182;7.650;2022-08-19T08:29:28;2.40;;;1.80;;
12703;SDS011;6416;52.182;7.650;2022-08-19T08:31:55;1.50;;;1.10;;
12703;SDS011;6416;52.182;7.650;2022-08-19T08:34:20;1.60;;;1.50;;
12703;SDS011;6416;52.182;7.650;2022-08-19T08:36:47;1.70;;;1.60;;
12703;SDS011;6416;52.182;7.650;2022-08-19T08:39:13;2.08;;;1.70;;
12703;SDS011;6416;52.182;7.650;2022-08-19T08:41:50;2.00;;;1.80;;
12703;SDS011;6416;52.182;7.650;2022-08-19T08:44:37;2.03;;;1.50;;
12703;SDS011;6416;52.182;7.650;2022-08-19T08:47:20;1.77;;;1.65;;
12703;SDS011;6416;52.182;7.650;2022-08-19T08:49:49;1.70;;;1.60;;
12703;SDS011;6416;52.182;7.650;2022-08-19T08:52:23;1.30;;;1.20;;
12703;SDS011;6416;52.182;7.650;2022-08-19T08:54:50;1.17;;;1.08;;
12703;SDS011;6416;52.182;7.650;2022-08-19T08:57:41;2.28;;;1.30;;
12703;SDS011;6416;52.182;7.650;2022-08-19T09:00:15;1.92;;;1.20;;
12703;SDS011;6416;52.182;7.650;2022-08-19T09:02:48;1.30;;;1.13;;
12703;SDS011;6416;52.182;7.650;2022-08-19T09:05:13;2.63;;;1.30;;
12703;SDS011;6416;52.182;7.650;2022-08-19T09:10:20;1.88;;;1.70;;
12703;SDS011;6416;52.182;7.650;2022-08-19T09:15:52;1.75;;;1.33;;
12703;SDS011;6416;52.182;7.650;2022-08-19T09:18:21;1.90;;;1.48;;
12703;SDS011;6416;52.182;7.650;2022-08-19T09:20:46;3.60;;;1.35;;
12703;SDS011;6416;52.182;7.650;2022-08-19T09:23:12;1.95;;;1.45;;
12703;SDS011;6416;52.182;7.650;2022-08-19T09:25:38;2.42;;;1.50;;
12703;SDS011;6416;52.182;7.650;2022-08-19T09:28:03;2.03;;;1.50;;
12703;SDS011;6416;52.182;7.650;2022-08-19T09:30:30;1.50;;;1.40;;
12703;SDS011;6416;52.182;7.650;2022-08-19T09:32:58;1.42;;;1.33;;
12703;SDS011;6416;52.182;7.650;2022-08-19T09:35:25;1.52;;;1.33;;
12703;SDS011;6416;52.182;7.650;2022-08-19T09:37:51;2.47;;;1.75;;
12703;SDS011;6416;52.182;7.650;2022-08-19T09:40:18;1.50;;;1.20;;
12703;SDS011;6416;52.182;7.650;2022-08-19T09:42:44;1.35;;;1.25;;
12703;SDS011;6416;52.182;7.650;2022-08-19T09:45:10;1.30;;;1.20;;
12703;SDS011;6416;52.182;7.650;2022-08-19T09:47:36;1.25;;;1.20;;
12703;SDS011;6416;52.182;7.650;2022-08-19T09:50:01;1.95;;;1.40;;
12703;SDS011;6416;52.182;7.650;2022-08-19T09:52:27;1.52;;;1.42;;
12703;SDS011;6416;52.182;7.650;2022-08-19T09:54:53;1.50;;;1.40;;
12703;SDS011;6416;52.182;7.650;2022-08-19T09:57:18;1.90;;;1.55;;
12703;SDS011;6416;52.182;7.650;2022-08-19T09:59:44;1.73;;;1.00;;
12703;SDS011;6416;52.182;7.650;2022-08-19T10:02:09;1.20;;;1.10;;
12703;SDS011;6416;52.182;7.650;2022-08-19T10:04:35;1.42;;;1.33;;
12703;SDS011;6416;52.182;7.650;2022-08-19T10:07:00;2.35;;;1.17;;
12703;SDS011;6416;52.182;7.650;2022-08-19T10:09:26;1.48;;;1.38;;
12703;SDS011;6416;52.182;7.650;2022-08-19T10:11:51;1.20;;;1.10;;
12703;SDS011;6416;52.182;7.650;2022-08-19T10:14:17;1.38;;;1.27;;
12703;SDS011;6416;52.182;7.650;2022-08-19T10:16:42;1.95;;;1.30;;
12703;SDS011;6416;52.182;7.650;2022-08-19T10:19:08;1.75;;;1.13;;
12703;SDS011;6416;52.182;7.650;2022-08-19T10:21:34;1.30;;;1.20;;
12703;SDS011;6416;52.182;7.650;2022-08-19T10:24:01;1.10;;;1.00;;
12703;SDS011;6416;52.182;7.650;2022-08-19T10:26:29;1.70;;;1.20;;
12703;SDS011;6416;52.182;7.650;2022-08-19T10:28:57;1.48;;;1.20;;
12703;SDS011;6416;52.182;7.650;2022-08-19T10:31:24;1.10;;;1.00;;
12703;SDS011;6416;52.182;7.650;2022-08-19T10:33:54;1.38;;;1.27;;
12703;SDS011;6416;52.182;7.650;2022-08-19T10:36:22;1.52;;;1.10;;
12703;SDS011;6416;52.182;7.650;2022-08-19T10:38:52;2.17;;;1.25;;
12703;SDS011;6416;52.182;7.650;2022-08-19T10:41:20;1.27;;;1.13;;
12703;SDS011;6416;52.182;7.650;2022-08-19T10:43:56;0.90;;;0.90;;
12703;SDS011;6416;52.182;7.650;2022-08-19T10:46:25;1.20;;;1.10;;
12703;SDS011;6416;52.182;7.650;2022-08-19T10:48:52;1.30;;;1.20;;
12703;SDS011;6416;52.182;7.650;2022-08-19T10:51:18;1.10;;;0.98;;
12703;SDS011;6416;52.182;7.650;2022-08-19T10:53:45;1.42;;;1.30;;
12703;SDS011;6416;52.182;7.650;2022-08-19T10:56:10;1.65;;;1.40;;
12703;SDS011;6416;52.182;7.650;2022-08-19T10:58:36;1.23;;;1.10;;
12703;SDS011;6416;52.182;7.650;2022-08-19T11:01:01;1.35;;;1.25;;
12703;SDS011;6416;52.182;7.650;2022-08-19T11:03:27;1.65;;;1.40;;
12703;SDS011;6416;52.182;7.650;2022-08-19T11:06:02;1.20;;;1.10;;
12703;SDS011;6416;52.182;7.650;2022-08-19T11:08:29;1.00;;;1.00;;
12703;SDS011;6416;52.182;7.650;2022-08-19T11:10:55;2.65;;;1.35;;
12703;SDS011;6416;52.182;7.650;2022-08-19T11:13:24;2.13;;;1.30;;
12703;SDS011;6416;52.182;7.650;2022-08-19T11:16:00;2.92;;;1.10;;
12703;SDS011;6416;52.182;7.650;2022-08-19T11:18:27;1.70;;;1.25;;
12703;SDS011;6416;52.182;7.650;2022-08-19T11:20:53;1.30;;;1.20;;
12703;SDS011;6416;52.182;7.650;2022-08-19T11:23:18;1.60;;;1.30;;
12703;SDS011;6416;52.182;7.650;2022-08-19T11:25:44;1.27;;;1.00;;
12703;SDS011;6416;52.182;7.650;2022-08-19T11:28:10;1.25;;;1.13;;
12703;SDS011;6416;52.182;7.650;2022-08-19T11:30:37;4.03;;;1.17;;
12703;SDS011;6416;52.182;7.650;2022-08-19T11:33:03;1.67;;;1.20;;
12703;SDS011;6416;52.182;7.650;2022-08-19T11:35:29;1.75;;;0.93;;
12703;SDS011;6416;52.182;7.650;2022-08-19T11:37:55;1.05;;;1.02;;
12703;SDS011;6416;52.182;7.650;2022-08-19T11:40:20;1.25;;;1.13;;
12703;SDS011;6416;52.182;7.650;2022-08-19T11:42:46;1.30;;;1.20;;
12703;SDS011;6416;52.182;7.650;2022-08-19T11:45:11;1.52;;;1.40;;
12703;SDS011;6416;52.182;7.650;2022-08-19T11:47:36;1.40;;;1.23;;
12703;SDS011;6416;52.182;7.650;2022-08-19T11:50:02;1.30;;;1.20;;
12703;SDS011;6416;52.182;7.650;2022-08-19T11:52:28;1.20;;;1.10;;
12703;SDS011;6416;52.182;7.650;2022-08-19T11:54:53;1.45;;;1.33;;
12703;SDS011;6416;52.182;7.650;2022-08-19T11:57:19;1.17;;;1.00;;
12703;SDS011;6416;52.182;7.650;2022-08-19T11:59:48;2.08;;;1.15;;
12703;SDS011;6416;52.182;7.650;2022-08-19T12:02:15;1.60;;;1.30;;
12703;SDS011;6416;52.182;7.650;2022-08-19T12:04:41;1.38;;;1.27;;
12703;SDS011;6416;52.182;7.650;2022-08-19T12:07:06;1.27;;;1.17;;
12703;SDS011;6416;52.182;7.650;2022-08-19T12:09:32;1.30;;;1.20;;
12703;SDS011;6416;52.182;7.650;2022-08-19T12:11:57;1.48;;;1.20;;
12703;SDS011;6416;52.182;7.650;2022-08-19T12:14:23;1.33;;;1.23;;
12703;SDS011;6416;52.182;7.650;2022-08-19T12:16:48;1.10;;;1.00;;
12703;SDS011;6416;52.182;7.650;2022-08-19T12:19:14;1.20;;;1.10;;
12703;SDS011;6416;52.182;7.650;2022-08-19T12:21:39;2.05;;;1.50;;
12703;SDS011;6416;52.182;7.650;2022-08-19T12:24:05;1.63;;;1.52;;
12703;SDS011;6416;52.182;7.650;2022-08-19T12:26:31;1.98;;;1.70;;
12703;SDS011;6416;52.182;7.650;2022-08-19T12:28:57;2.53;;;1.52;;
12703;SDS011;6416;52.182;7.650;2022-08-19T12:31:23;2.30;;;1.80;;
12703;SDS011;6416;52.182;7.650;2022-08-19T12:33:49;1.42;;;1.30;;
12703;SDS011;6416;52.182;7.650;2022-08-19T12:36:14;1.80;;;1.30;;
12703;SDS011;6416;52.182;7.650;2022-08-19T12:38:41;1.50;;;1.40;;
12703;SDS011;6416;52.182;7.650;2022-08-19T12:41:06;3.95;;;1.60;;
12703;SDS011;6416;52.182;7.650;2022-08-19T12:43:36;1.40;;;1.30;;
12703;SDS011;6416;52.182;7.650;2022-08-19T12:46:02;1.05;;;1.00;;
12703;SDS011;6416;52.182;7.650;2022-08-19T12:48:28;3.17;;;1.30;;
12703;SDS011;6416;52.182;7.650;2022-08-19T12:50:54;1.90;;;1.35;;
12703;SDS011;6416;52.182;7.650;2022-08-19T12:53:19;1.58;;;1.35;;
12703;SDS011;6416;52.182;7.650;2022-08-19T12:55:45;1.58;;;1.48;;
12703;SDS011;6416;52.182;7.650;2022-08-19T12:58:11;1.40;;;1.30;;
12703;SDS011;6416;52.182;7.650;2022-08-19T13:00:37;1.20;;;1.10;;
12703;SDS011;6416;52.182;7.650;2022-08-19T13:03:03;1.20;;;1.10;;
12703;SDS011;6416;52.182;7.650;2022-08-19T13:05:29;1.40;;;1.20;;
12703;SDS011;6416;52.182;7.650;2022-08-19T13:07:57;1.23;;;1.13;;
12703;SDS011;6416;52.182;7.650;2022-08-19T13:10:24;1.58;;;1.23;;
12703;SDS011;6416;52.182;7.650;2022-08-19T13:12:52;1.63;;;1.40;;
12703;SDS011;6416;52.182;7.650;2022-08-19T13:15:18;1.88;;;0.95;;
12703;SDS011;6416;52.182;7.650;2022-08-19T13:17:44;2.08;;;1.33;;
12703;SDS011;6416;52.182;7.650;2022-08-19T13:20:10;1.20;;;1.10;;
12703;SDS011;6416;52.182;7.650;2022-08-19T13:22:36;1.35;;;1.25;;
12703;SDS011;6416;52.182;7.650;2022-08-19T13:25:03;2.88;;;1.45;;
12703;SDS011;6416;52.182;7.650;2022-08-19T13:27:29;1.50;;;1.40;;
12703;SDS011;6416;52.182;7.650;2022-08-19T13:29:55;1.35;;;1.25;;
12703;SDS011;6416;52.182;7.650;2022-08-19T13:32:20;1.45;;;1.35;;
12703;SDS011;6416;52.182;7.650;2022-08-19T13:34:46;1.63;;;1.30;;
12703;SDS011;6416;52.182;7.650;2022-08-19T13:37:11;1.60;;;1.50;;
12703;SDS011;6416;52.182;7.650;2022-08-19T13:39:37;1.60;;;1.50;;
12703;SDS011;6416;52.182;7.650;2022-08-19T13:42:03;1.40;;;1.30;;
12703;SDS011;6416;52.182;7.650;2022-08-19T13:44:28;11.45;;;2.03;;
12703;SDS011;6416;52.182;7.650;2022-08-19T13:46:54;1.55;;;1.45;;
12703;SDS011;6416;52.182;7.650;2022-08-19T13:49:30;1.55;;;1.45;;
12703;SDS011;6416;52.182;7.650;2022-08-19T13:51:56;3.15;;;1.85;;
12703;SDS011;6416;52.182;7.650;2022-08-19T13:54:22;2.20;;;2.00;;
12703;SDS011;6416;52.182;7.650;2022-08-19T13:56:47;2.85;;;2.10;;
12703;SDS011;6416;52.182;7.650;2022-08-19T13:59:13;3.05;;;2.30;;
12703;SDS011;6416;52.182;7.650;2022-08-19T14:01:39;1.95;;;1.80;;
12703;SDS011;6416;52.182;7.650;2022-08-19T14:04:05;1.98;;;1.75;;
12703;SDS011;6416;52.182;7.650;2022-08-19T14:06:31;2.22;;;2.03;;
12703;SDS011;6416;52.182;7.650;2022-08-19T14:08:57;1.92;;;1.83;;
12703;SDS011;6416;52.182;7.650;2022-08-19T14:11:23;2.17;;;1.98;;
12703;SDS011;6416;52.182;7.650;2022-08-19T14:13:49;2.17;;;1.95;;
12703;SDS011;6416;52.182;7.650;2022-08-19T14:16:14;2.40;;;2.15;;
12703;SDS011;6416;52.182;7.650;2022-08-19T14:18:40;2.95;;;2.20;;
12703;SDS011;6416;52.182;7.650;2022-08-19T14:21:07;2.78;;;2.30;;
12703;SDS011;6416;52.182;7.650;2022-08-19T14:23:33;2.25;;;2.08;;
12703;SDS011;6416;52.182;7.650;2022-08-19T14:26:06;2.38;;;1.98;;
12703;SDS011;6416;52.182;7.650;2022-08-19T14:28:33;3.33;;;2.20;;
12703;SDS011;6416;52.182;7.650;2022-08-19T14:30:59;2.10;;;1.98;;
12703;SDS011;6416;52.182;7.650;2022-08-19T14:33:24;1.88;;;1.77;;
12703;SDS011;6416;52.182;7.650;2022-08-19T14:35:50;2.50;;;2.08;;
12703;SDS011;6416;52.182;7.650;2022-08-19T14:38:16;2.58;;;2.38;;
12703;SDS011;6416;52.182;7.650;2022-08-19T14:40:43;2.58;;;2.30;;
12703;SDS011;6416;52.182;7.650;2022-08-19T14:43:09;5.45;;;2.60;;
12703;SDS011;6416;52.182;7.650;2022-08-19T14:45:35;2.17;;;2.03;;
12703;SDS011;6416;52.182;7.650;2022-08-19T14:48:03;2.80;;;2.60;;
12703;SDS011;6416;52.182;7.650;2022-08-19T14:50:29;4.55;;;2.28;;
12703;SDS011;6416;52.182;7.650;2022-08-19T14:52:59;2.90;;;2.70;;
12703;SDS011;6416;52.182;7.650;2022-08-19T14:55:26;2.83;;;2.63;;
12703;SDS011;6416;52.182;7.650;2022-08-19T14:57:52;2.75;;;2.55;;
12703;SDS011;6416;52.182;7.650;2022-08-19T15:00:18;2.78;;;2.35;;
12703;SDS011;6416;52.182;7.650;2022-08-19T15:02:43;2.40;;;2.20;;
12703;SDS011;6416;52.182;7.650;2022-08-19T15:05:09;2.35;;;2.15;;
12703;SDS011;6416;52.182;7.650;2022-08-19T15:07:35;2.45;;;2.25;;